sensor_id;sensor_type;location;lat;lon;timestamp;temperature;humidity
41471;DHT22;27211;51.220;5.308;2023-01-25T08:27:29;3.10;99.90
41471;DHT22;27211;51.220;5.308;2023-01-25T08:29:55;3.20;99.90
41471;DHT22;27211;51.220;5.308;2023-01-25T08:32:21;2.70;99.90
41471;DHT22;27211;51.220;5.308;2023-01-25T08:34:48;2.20;99.90
41471;DHT22;27211;51.220;5.308;2023-01-25T08:37:13;2.20;99.90
41471;DHT22;27211;51.220;5.308;2023-01-25T08:39:39;2.00;99.90
41471;DHT22;27211;51.220;5.308;2023-01-25T08:42:05;2.00;99.90
41471;DHT22;27211;51.220;5.308;2023-01-25T08:44:31;2.30;99.90
41471;DHT22;27211;51.220;5.308;2023-01-25T08:46:57;2.10;99.90
41471;DHT22;27211;51.220;5.308;2023-01-25T08:49:22;2.00;99.90
41471;DHT22;27211;51.220;5.308;2023-01-25T08:51:49;2.10;99.90
41471;DHT22;27211;51.220;5.308;2023-01-25T08:54:14;2.40;99.90
41471;DHT22;27211;51.220;5.308;2023-01-25T08:56:41;2.80;99.90
41471;DHT22;27211;51.220;5.308;2023-01-25T08:59:10;2.60;99.90
41471;DHT22;27211;51.220;5.308;2023-01-25T09:01:36;2.60;99.90
41471;DHT22;27211;51.220;5.308;2023-01-25T09:04:02;2.30;99.90
41471;DHT22;27211;51.220;5.308;2023-01-25T09:06:27;2.40;99.90
41471;DHT22;27211;51.220;5.308;2023-01-25T09:08:53;2.40;99.90
41471;DHT22;27211;51.220;5.308;2023-01-25T09:11:20;2.30;99.90
41471;DHT22;27211;51.220;5.308;2023-01-25T09:13:47;2.20;99.90
41471;DHT22;27211;51.220;5.308;2023-01-25T09:16:20;2.40;99.90
41471;DHT22;27211;51.220;5.308;2023-01-25T09:18:52;2.30;99.90
41471;DHT22;27211;51.220;5.308;2023-01-25T09:21:18;2.30;99.90
41471;DHT22;27211;51.220;5.308;2023-01-25T09:23:47;2.60;99.90
41471;DHT22;27211;51.220;5.308;2023-01-25T09:26:16;2.50;99.90
41471;DHT22;27211;51.220;5.308;2023-01-25T09:28:45;2.40;99.90
41471;DHT22;27211;51.220;5.308;2023-01-25T09:31:11;2.40;99.90
41471;DHT22;27211;51.220;5.308;2023-01-25T09:33:39;2.60;99.90
41471;DHT22;27211;51.220;5.308;2023-01-25T09:36:05;2.60;99.90
41471;DHT22;27211;51.220;5.308;2023-01-25T09:38:32;3.10;99.90
41471;DHT22;27211;51.220;5.308;2023-01-25T09:46:55;3.40;99.90
41471;DHT22;27211;51.220;5.308;2023-01-25T09:55:16;2.80;99.90
41471;DHT22;27211;51.220;5.308;2023-01-25T09:57:44;2.60;99.90
41471;DHT22;27211;51.220;5.308;2023-01-25T10:00:44;2.40;99.90
41471;DHT22;27211;51.220;5.308;2023-01-25T10:05:49;2.70;99.90
41471;DHT22;27211;51.220;5.308;2023-01-25T10:08:37;2.60;99.90
41471;DHT22;27211;51.220;5.308;2023-01-25T10:13:43;2.50;99.90
41471;DHT22;27211;51.220;5.308;2023-01-25T10:16:42;2.80;99.90
41471;DHT22;27211;51.220;5.308;2023-01-25T10:22:42;2.90;99.90
41471;DHT22;27211;51.220;5.308;2023-01-25T10:24:58;3.10;99.90
41471;DHT22;27211;51.220;5.308;2023-01-25T10:30:38;3.10;99.90
41471;DHT22;27211;51.220;5.308;2023-01-25T10:33:17;2.90;99.90
41471;DHT22;27211;51.220;5.308;2023-01-25T10:35:46;2.90;99.90
41471;DHT22;27211;51.220;5.308;2023-01-25T10:38:47;2.90;99.90
41471;DHT22;27211;51.220;5.308;2023-01-25T10:41:22;2.60;99.90
41471;DHT22;27211;51.220;5.308;2023-01-25T10:43:51;2.70;99.90
41471;DHT22;27211;51.220;5.308;2023-01-25T10:46:39;2.80;99.90
41471;DHT22;27211;51.220;5.308;2023-01-25T10:51:53;2.80;99.90
41471;DHT22;27211;51.220;5.308;2023-01-25T10:54:21;2.70;99.90
41471;DHT22;27211;51.220;5.308;2023-01-25T10:56:47;2.70;99.90
41471;DHT22;27211;51.220;5.308;2023-01-25T10:59:17;2.80;99.90
41471;DHT22;27211;51.220;5.308;2023-01-25T11:01:44;2.80;99.90
41471;DHT22;27211;51.220;5.308;2023-01-25T11:04:32;2.80;99.90
41471;DHT22;27211;51.220;5.308;2023-01-25T11:07:00;3.00;99.90
41471;DHT22;27211;51.220;5.308;2023-01-25T11:09:30;2.80;99.90
41471;DHT22;27211;51.220;5.308;2023-01-25T11:12:19;2.90;99.90
41471;DHT22;27211;51.220;5.308;2023-01-25T11:14:47;3.00;99.90
41471;DHT22;27211;51.220;5.308;2023-01-25T11:17:23;3.10;99.90
41471;DHT22;27211;51.220;5.308;2023-01-25T11:20:18;2.90;99.90
41471;DHT22;27211;51.220;5.308;2023-01-25T11:22:53;2.80;99.90
41471;DHT22;27211;51.220;5.308;2023-01-25T11:27:49;2.60;99.90
41471;DHT22;27211;51.220;5.308;2023-01-25T11:30:17;2.80;99.90
41471;DHT22;27211;51.220;5.308;2023-01-25T11:32:45;2.70;99.90
41471;DHT22;27211;51.220;5.308;2023-01-25T11:35:17;2.70;99.90
41471;DHT22;27211;51.220;5.308;2023-01-25T11:40:40;2.70;99.90
41471;DHT22;27211;51.220;5.308;2023-01-25T11:49:35;2.80;99.90
41471;DHT22;27211;51.220;5.308;2023-01-25T11:51:49;2.80;99.90
41471;DHT22;27211;51.220;5.308;2023-01-25T12:00:26;3.40;99.90
41471;DHT22;27211;51.220;5.308;2023-01-25T12:05:52;3.10;99.90
41471;DHT22;27211;51.220;5.308;2023-01-25T12:14:40;2.60;99.90
41471;DHT22;27211;51.220;5.308;2023-01-25T12:20:25;2.80;99.90
41471;DHT22;27211;51.220;5.308;2023-01-25T12:28:39;2.70;99.90
41471;DHT22;27211;51.220;5.308;2023-01-25T12:34:00;3.00;99.90
41471;DHT22;27211;51.220;5.308;2023-01-25T12:36:34;2.90;99.90
41471;DHT22;27211;51.220;5.308;2023-01-25T12:39:11;2.90;99.90
41471;DHT22;27211;51.220;5.308;2023-01-25T12:50:03;2.80;99.90
41471;DHT22;27211;51.220;5.308;2023-01-25T12:52:45;2.30;99.90
41471;DHT22;27211;51.220;5.308;2023-01-25T12:55:15;2.00;99.90
41471;DHT22;27211;51.220;5.308;2023-01-25T12:58:03;2.10;99.90
41471;DHT22;27211;51.220;5.308;2023-01-25T13:00:51;2.20;99.90
41471;DHT22;27211;51.220;5.308;2023-01-25T13:03:35;2.50;99.90
41471;DHT22;27211;51.220;5.308;2023-01-25T13:09:03;2.60;99.90
41471;DHT22;27211;51.220;5.308;2023-01-25T13:11:39;2.40;99.90
41471;DHT22;27211;51.220;5.308;2023-01-25T13:19:20;2.90;99.90
41471;DHT22;27211;51.220;5.308;2023-01-25T13:21:48;3.00;99.90
41471;DHT22;27211;51.220;5.308;2023-01-25T13:24:33;2.90;99.90
41471;DHT22;27211;51.220;5.308;2023-01-25T13:27:25;3.10;99.90
41471;DHT22;27211;51.220;5.308;2023-01-25T13:30:00;2.70;99.90
41471;DHT22;27211;51.220;5.308;2023-01-25T13:37:32;2.30;99.90
41471;DHT22;27211;51.220;5.308;2023-01-25T13:40:10;2.30;99.90
41471;DHT22;27211;51.220;5.308;2023-01-25T13:43:18;2.30;99.90
41471;DHT22;27211;51.220;5.308;2023-01-25T13:45:48;2.70;99.90
41471;DHT22;27211;51.220;5.308;2023-01-25T13:48:21;2.50;99.90
41471;DHT22;27211;51.220;5.308;2023-01-25T13:51:02;2.50;99.90
41471;DHT22;27211;51.220;5.308;2023-01-25T13:53:29;2.70;99.90
41471;DHT22;27211;51.220;5.308;2023-01-25T13:55:58;2.50;99.90
41471;DHT22;27211;51.220;5.308;2023-01-25T13:58:31;2.70;99.90
41471;DHT22;27211;51.220;5.308;2023-01-25T14:01:00;2.50;99.90
41471;DHT22;27211;51.220;5.308;2023-01-25T14:03:54;2.20;99.90
41471;DHT22;27211;51.220;5.308;2023-01-25T14:08:57;2.10;99.90
41471;DHT22;27211;51.220;5.308;2023-01-25T14:11:29;2.20;99.90
41471;DHT22;27211;51.220;5.308;2023-01-25T14:13:58;2.40;99.90
41471;DHT22;27211;51.220;5.308;2023-01-25T14:16:24;2.50;99.90
41471;DHT22;27211;51.220;5.308;2023-01-25T14:18:51;2.40;99.90
41471;DHT22;27211;51.220;5.308;2023-01-25T14:21:19;2.20;99.90
41471;DHT22;27211;51.220;5.308;2023-01-25T14:23:47;2.00;99.90
41471;DHT22;27211;51.220;5.308;2023-01-25T14:26:26;2.20;99.90
41471;DHT22;27211;51.220;5.308;2023-01-25T14:28:56;2.40;99.90
41471;DHT22;27211;51.220;5.308;2023-01-25T14:31:24;2.00;99.90
41471;DHT22;27211;51.220;5.308;2023-01-25T14:33:51;2.00;99.90
41471;DHT22;27211;51.220;5.308;2023-01-25T14:36:27;2.00;99.90
41471;DHT22;27211;51.220;5.308;2023-01-25T14:38:54;2.20;99.90
41471;DHT22;27211;51.220;5.308;2023-01-25T14:41:38;1.90;99.90
41471;DHT22;27211;51.220;5.308;2023-01-25T14:44:12;2.00;99.90
41471;DHT22;27211;51.220;5.308;2023-01-25T14:46:40;2.10;99.90
41471;DHT22;27211;51.220;5.308;2023-01-25T14:51:47;2.20;99.90
41471;DHT22;27211;51.220;5.308;2023-01-25T14:54:24;2.20;99.90
41471;DHT22;27211;51.220;5.308;2023-01-25T14:57:02;2.30;99.90
41471;DHT22;27211;51.220;5.308;2023-01-25T14:59:50;2.00;99.90
41471;DHT22;27211;51.220;5.308;2023-01-25T15:02:46;1.90;99.90
41471;DHT22;27211;51.220;5.308;2023-01-25T15:07:53;2.00;99.90
41471;DHT22;27211;51.220;5.308;2023-01-25T15:10:25;2.20;99.90
41471;DHT22;27211;51.220;5.308;2023-01-25T15:15:34;2.30;99.90
41471;DHT22;27211;51.220;5.308;2023-01-25T15:18:00;2.50;99.90
41471;DHT22;27211;51.220;5.308;2023-01-25T15:20:30;2.50;99.90
41471;DHT22;27211;51.220;5.308;2023-01-25T15:23:00;2.40;99.90
41471;DHT22;27211;51.220;5.308;2023-01-25T15:25:26;2.30;99.90
41471;DHT22;27211;51.220;5.308;2023-01-25T15:27:52;2.50;99.90
41471;DHT22;27211;51.220;5.308;2023-01-25T15:30:19;2.10;99.90
41471;DHT22;27211;51.220;5.308;2023-01-25T15:32:45;2.10;99.90
41471;DHT22;27211;51.220;5.308;2023-01-25T15:35:19;2.10;99.90
41471;DHT22;27211;51.220;5.308;2023-01-25T15:37:47;2.20;99.90
41471;DHT22;27211;51.220;5.308;2023-01-25T15:40:13;2.20;99.90
41471;DHT22;27211;51.220;5.308;2023-01-25T15:42:40;2.10;99.90
41471;DHT22;27211;51.220;5.308;2023-01-25T15:45:07;2.00;99.90
41471;DHT22;27211;51.220;5.308;2023-01-25T15:47:37;1.90;99.90
41471;DHT22;27211;51.220;5.308;2023-01-25T15:50:04;1.70;99.90
41471;DHT22;27211;51.220;5.308;2023-01-25T15:52:30;1.60;99.90
41471;DHT22;27211;51.220;5.308;2023-01-25T15:55:00;1.60;99.90
41471;DHT22;27211;51.220;5.308;2023-01-25T15:57:31;1.60;99.90
41471;DHT22;27211;51.220;5.308;2023-01-25T15:59:59;1.70;99.90
41471;DHT22;27211;51.220;5.308;2023-01-25T16:02:25;1.70;99.90
41471;DHT22;27211;51.220;5.308;2023-01-25T16:04:51;1.60;99.90
41471;DHT22;27211;51.220;5.308;2023-01-25T16:07:28;1.50;99.90
41471;DHT22;27211;51.220;5.308;2023-01-25T16:09:54;1.60;99.90
41471;DHT22;27211;51.220;5.308;2023-01-25T16:12:20;1.70;99.90
41471;DHT22;27211;51.220;5.308;2023-01-25T16:14:47;1.60;99.90
41471;DHT22;27211;51.220;5.308;2023-01-25T16:17:20;1.80;99.90
41471;DHT22;27211;51.220;5.308;2023-01-25T16:19:47;2.20;99.90
41471;DHT22;27211;51.220;5.308;2023-01-25T16:22:14;2.40;99.90
41471;DHT22;27211;51.220;5.308;2023-01-25T16:24:41;2.40;99.90
41471;DHT22;27211;51.220;5.308;2023-01-25T16:27:17;2.40;99.90
41471;DHT22;27211;51.220;5.308;2023-01-25T16:29:50;2.00;99.90
41471;DHT22;27211;51.220;5.308;2023-01-25T16:32:16;1.80;99.90
41471;DHT22;27211;51.220;5.308;2023-01-25T16:34:41;1.80;99.90
41471;DHT22;27211;51.220;5.308;2023-01-25T16:37:14;1.60;99.90
41471;DHT22;27211;51.220;5.308;2023-01-25T16:39:39;1.70;99.90
41471;DHT22;27211;51.220;5.308;2023-01-25T16:42:05;1.60;99.90
41471;DHT22;27211;51.220;5.308;2023-01-25T16:44:33;1.60;99.90
41471;DHT22;27211;51.220;5.308;2023-01-25T16:46:59;1.60;99.90
41471;DHT22;27211;51.220;5.308;2023-01-25T16:49:25;1.60;99.90
41471;DHT22;27211;51.220;5.308;2023-01-25T16:51:52;1.70;99.90
41471;DHT22;27211;51.220;5.308;2023-01-25T16:54:20;1.80;99.90
41471;DHT22;27211;51.220;5.308;2023-01-25T16:56:46;1.70;99.90
41471;DHT22;27211;51.220;5.308;2023-01-25T16:59:12;1.60;99.90
41471;DHT22;27211;51.220;5.308;2023-01-25T17:01:38;1.40;99.90
41471;DHT22;27211;51.220;5.308;2023-01-25T17:04:06;1.40;99.90
41471;DHT22;27211;51.220;5.308;2023-01-25T17:06:34;1.30;99.90
41471;DHT22;27211;51.220;5.308;2023-01-25T17:09:02;1.40;99.90
41471;DHT22;27211;51.220;5.308;2023-01-25T17:11:29;1.50;99.90
41471;DHT22;27211;51.220;5.308;2023-01-25T17:13:57;1.40;99.90
41471;DHT22;27211;51.220;5.308;2023-01-25T17:16:26;1.30;99.90
41471;DHT22;27211;51.220;5.308;2023-01-25T17:18:56;1.40;99.90
41471;DHT22;27211;51.220;5.308;2023-01-25T17:21:23;1.30;99.90
41471;DHT22;27211;51.220;5.308;2023-01-25T17:23:49;1.60;99.90
41471;DHT22;27211;51.220;5.308;2023-01-25T17:26:17;2.00;99.90
41471;DHT22;27211;51.220;5.308;2023-01-25T17:28:43;1.60;99.90
41471;DHT22;27211;51.220;5.308;2023-01-25T17:31:14;1.40;99.90
41471;DHT22;27211;51.220;5.308;2023-01-25T17:33:41;1.60;99.90
41471;DHT22;27211;51.220;5.308;2023-01-25T17:36:07;1.70;99.90
41471;DHT22;27211;51.220;5.308;2023-01-25T17:38:33;1.60;99.90
41471;DHT22;27211;51.220;5.308;2023-01-25T17:41:04;1.70;99.90
41471;DHT22;27211;51.220;5.308;2023-01-25T17:43:30;1.70;99.90
41471;DHT22;27211;51.220;5.308;2023-01-25T17:45:57;1.60;99.90
41471;DHT22;27211;51.220;5.308;2023-01-25T17:48:23;1.70;99.90
41471;DHT22;27211;51.220;5.308;2023-01-25T17:51:00;1.90;99.90
41471;DHT22;27211;51.220;5.308;2023-01-25T17:53:26;1.70;99.90
41471;DHT22;27211;51.220;5.308;2023-01-25T17:55:52;1.50;99.90
41471;DHT22;27211;51.220;5.308;2023-01-25T17:58:19;1.60;99.90
41471;DHT22;27211;51.220;5.308;2023-01-25T18:00:45;1.70;99.90
41471;DHT22;27211;51.220;5.308;2023-01-25T18:03:10;1.50;99.90
41471;DHT22;27211;51.220;5.308;2023-01-25T18:05:37;1.80;99.90
41471;DHT22;27211;51.220;5.308;2023-01-25T18:08:03;1.80;99.90
41471;DHT22;27211;51.220;5.308;2023-01-25T18:10:30;1.60;99.90
41471;DHT22;27211;51.220;5.308;2023-01-25T18:12:56;1.40;99.90
41471;DHT22;27211;51.220;5.308;2023-01-25T18:15:22;1.50;99.90
41471;DHT22;27211;51.220;5.308;2023-01-25T18:17:49;1.90;99.90
41471;DHT22;27211;51.220;5.308;2023-01-25T18:20:15;1.50;99.90
41471;DHT22;27211;51.220;5.308;2023-01-25T18:22:41;1.60;99.90
41471;DHT22;27211;51.220;5.308;2023-01-25T18:25:31;1.60;99.90
41471;DHT22;27211;51.220;5.308;2023-01-25T18:27:57;1.30;99.90
41471;DHT22;27211;51.220;5.308;2023-01-25T18:30:30;1.50;99.90
41471;DHT22;27211;51.220;5.308;2023-01-25T18:32:57;1.50;99.90
41471;DHT22;27211;51.220;5.308;2023-01-25T18:35:23;1.60;99.90
41471;DHT22;27211;51.220;5.308;2023-01-25T18:37:50;1.70;99.90
41471;DHT22;27211;51.220;5.308;2023-01-25T18:40:16;1.90;99.90
41471;DHT22;27211;51.220;5.308;2023-01-25T18:42:44;1.70;99.90
41471;DHT22;27211;51.220;5.308;2023-01-25T18:45:11;1.40;99.90
41471;DHT22;27211;51.220;5.308;2023-01-25T18:47:37;1.20;99.90
41471;DHT22;27211;51.220;5.308;2023-01-25T18:50:03;1.60;99.90
41471;DHT22;27211;51.220;5.308;2023-01-25T18:52:29;1.90;99.90
41471;DHT22;27211;51.220;5.308;2023-01-25T18:54:55;1.10;99.90
41471;DHT22;27211;51.220;5.308;2023-01-25T18:57:22;0.90;99.90
41471;DHT22;27211;51.220;5.308;2023-01-25T18:59:47;1.10;99.90
41471;DHT22;27211;51.220;5.308;2023-01-25T19:02:17;1.60;99.90
41471;DHT22;27211;51.220;5.308;2023-01-25T19:04:43;1.40;99.90
41471;DHT22;27211;51.220;5.308;2023-01-25T19:07:11;1.20;99.90
41471;DHT22;27211;51.220;5.308;2023-01-25T19:09:37;1.30;99.90
41471;DHT22;27211;51.220;5.308;2023-01-25T19:12:03;1.10;99.90
41471;DHT22;27211;51.220;5.308;2023-01-25T19:14:29;1.20;99.90
41471;DHT22;27211;51.220;5.308;2023-01-25T19:16:55;1.50;99.90
41471;DHT22;27211;51.220;5.308;2023-01-25T19:19:21;1.30;99.90
41471;DHT22;27211;51.220;5.308;2023-01-25T19:21:48;1.40;99.90
41471;DHT22;27211;51.220;5.308;2023-01-25T19:24:16;1.00;99.90
41471;DHT22;27211;51.220;5.308;2023-01-25T19:26:42;0.90;99.90
41471;DHT22;27211;51.220;5.308;2023-01-25T19:29:08;0.80;99.90
41471;DHT22;27211;51.220;5.308;2023-01-25T19:31:35;0.70;99.90
41471;DHT22;27211;51.220;5.308;2023-01-25T19:34:05;0.90;99.90
41471;DHT22;27211;51.220;5.308;2023-01-25T19:36:34;1.00;99.90
41471;DHT22;27211;51.220;5.308;2023-01-25T19:39:01;0.90;99.90
41471;DHT22;27211;51.220;5.308;2023-01-25T19:41:29;0.90;99.90
41471;DHT22;27211;51.220;5.308;2023-01-25T19:44:00;0.90;99.90
41471;DHT22;27211;51.220;5.308;2023-01-25T19:46:31;1.10;99.90
41471;DHT22;27211;51.220;5.308;2023-01-25T19:48:58;1.20;99.90
41471;DHT22;27211;51.220;5.308;2023-01-25T19:51:26;1.00;99.90
41471;DHT22;27211;51.220;5.308;2023-01-25T19:54:04;1.00;99.90
41471;DHT22;27211;51.220;5.308;2023-01-25T19:56:33;0.90;99.90
41471;DHT22;27211;51.220;5.308;2023-01-25T19:59:02;1.00;99.90
41471;DHT22;27211;51.220;5.308;2023-01-25T20:01:28;0.80;99.90
41471;DHT22;27211;51.220;5.308;2023-01-25T20:03:54;0.80;99.90
41471;DHT22;27211;51.220;5.308;2023-01-25T20:06:22;1.00;99.90
41471;DHT22;27211;51.220;5.308;2023-01-25T20:08:48;1.00;99.90
41471;DHT22;27211;51.220;5.308;2023-01-25T20:11:23;0.90;99.90
41471;DHT22;27211;51.220;5.308;2023-01-25T20:13:51;0.90;99.90
41471;DHT22;27211;51.220;5.308;2023-01-25T20:16:17;1.00;99.90
41471;DHT22;27211;51.220;5.308;2023-01-25T20:18:44;0.90;99.90
41471;DHT22;27211;51.220;5.308;2023-01-25T20:21:12;1.00;99.90
41471;DHT22;27211;51.220;5.308;2023-01-25T20:23:42;0.90;99.90
41471;DHT22;27211;51.220;5.308;2023-01-25T20:26:14;0.90;99.90
41471;DHT22;27211;51.220;5.308;2023-01-25T20:28:42;0.90;99.90
41471;DHT22;27211;51.220;5.308;2023-01-25T20:33:54;0.80;99.90
41471;DHT22;27211;51.220;5.308;2023-01-25T20:36:21;0.90;99.90
41471;DHT22;27211;51.220;5.308;2023-01-25T20:38:47;1.00;99.90
41471;DHT22;27211;51.220;5.308;2023-01-25T20:41:16;0.90;99.90
41471;DHT22;27211;51.220;5.308;2023-01-25T20:43:53;1.20;99.90
41471;DHT22;27211;51.220;5.308;2023-01-25T20:46:20;1.00;99.90
41471;DHT22;27211;51.220;5.308;2023-01-25T20:48:47;0.90;99.90
41471;DHT22;27211;51.220;5.308;2023-01-25T20:51:14;0.90;99.90
41471;DHT22;27211;51.220;5.308;2023-01-25T20:53:42;0.80;99.90
41471;DHT22;27211;51.220;5.308;2023-01-25T20:56:09;0.90;99.90
41471;DHT22;27211;51.220;5.308;2023-01-25T20:58:36;0.90;99.90
41471;DHT22;27211;51.220;5.308;2023-01-25T21:01:03;1.00;99.90
41471;DHT22;27211;51.220;5.308;2023-01-25T21:03:29;1.00;99.90
41471;DHT22;27211;51.220;5.308;2023-01-25T21:05:57;1.00;99.90
41471;DHT22;27211;51.220;5.308;2023-01-25T21:08:24;1.10;99.90
41471;DHT22;27211;51.220;5.308;2023-01-25T21:10:56;1.30;99.90
41471;DHT22;27211;51.220;5.308;2023-01-25T21:13:22;1.20;99.90
41471;DHT22;27211;51.220;5.308;2023-01-25T21:18:29;1.50;99.90
41471;DHT22;27211;51.220;5.308;2023-01-25T21:21:00;1.80;99.90
41471;DHT22;27211;51.220;5.308;2023-01-25T21:23:26;1.90;99.90
41471;DHT22;27211;51.220;5.308;2023-01-25T21:25:53;1.60;99.90
41471;DHT22;27211;51.220;5.308;2023-01-25T21:28:18;1.30;99.90
41471;DHT22;27211;51.220;5.308;2023-01-25T21:30:44;1.40;99.90
41471;DHT22;27211;51.220;5.308;2023-01-25T21:33:10;1.30;99.90
41471;DHT22;27211;51.220;5.308;2023-01-25T21:35:36;1.20;99.90
41471;DHT22;27211;51.220;5.308;2023-01-25T21:38:02;1.00;99.90
41471;DHT22;27211;51.220;5.308;2023-01-25T21:40:28;1.00;99.90
41471;DHT22;27211;51.220;5.308;2023-01-25T21:42:55;1.10;99.90
41471;DHT22;27211;51.220;5.308;2023-01-25T21:45:20;1.40;99.90
41471;DHT22;27211;51.220;5.308;2023-01-25T21:48:05;1.50;99.90
41471;DHT22;27211;51.220;5.308;2023-01-25T21:50:31;1.50;99.90
41471;DHT22;27211;51.220;5.308;2023-01-25T21:53:15;1.90;99.90
41471;DHT22;27211;51.220;5.308;2023-01-25T21:55:41;2.10;99.90
41471;DHT22;27211;51.220;5.308;2023-01-25T21:58:07;1.50;99.90
41471;DHT22;27211;51.220;5.308;2023-01-25T22:00:33;1.20;99.90
41471;DHT22;27211;51.220;5.308;2023-01-25T22:03:00;1.60;99.90
41471;DHT22;27211;51.220;5.308;2023-01-25T22:05:26;1.50;99.90
41471;DHT22;27211;51.220;5.308;2023-01-25T22:07:52;1.40;99.90
41471;DHT22;27211;51.220;5.308;2023-01-25T22:10:18;1.40;99.90
41471;DHT22;27211;51.220;5.308;2023-01-25T22:12:44;1.10;99.90
41471;DHT22;27211;51.220;5.308;2023-01-25T22:15:11;1.10;99.90
41471;DHT22;27211;51.220;5.308;2023-01-25T22:17:37;1.10;99.90
41471;DHT22;27211;51.220;5.308;2023-01-25T22:20:03;1.50;99.90
41471;DHT22;27211;51.220;5.308;2023-01-25T22:22:29;1.50;99.90
41471;DHT22;27211;51.220;5.308;2023-01-25T22:24:54;1.50;99.90
41471;DHT22;27211;51.220;5.308;2023-01-25T22:27:37;1.50;99.90
41471;DHT22;27211;51.220;5.308;2023-01-25T22:30:05;1.60;99.90
41471;DHT22;27211;51.220;5.308;2023-01-25T22:32:32;1.50;99.90
41471;DHT22;27211;51.220;5.308;2023-01-25T22:34:57;1.30;99.90
41471;DHT22;27211;51.220;5.308;2023-01-25T22:37:23;1.40;99.90
41471;DHT22;27211;51.220;5.308;2023-01-25T22:39:49;1.50;99.90
41471;DHT22;27211;51.220;5.308;2023-01-25T22:42:15;1.40;99.90
41471;DHT22;27211;51.220;5.308;2023-01-25T22:44:40;1.40;99.90
41471;DHT22;27211;51.220;5.308;2023-01-25T22:47:06;1.50;99.90
41471;DHT22;27211;51.220;5.308;2023-01-25T22:49:32;1.40;99.90
41471;DHT22;27211;51.220;5.308;2023-01-25T22:51:58;1.20;99.90
41471;DHT22;27211;51.220;5.308;2023-01-25T22:54:24;1.10;99.90
41471;DHT22;27211;51.220;5.308;2023-01-25T22:56:50;0.90;99.90
41471;DHT22;27211;51.220;5.308;2023-01-25T22:59:16;0.90;99.90
41471;DHT22;27211;51.220;5.308;2023-01-25T23:01:43;1.00;99.90
41471;DHT22;27211;51.220;5.308;2023-01-25T23:04:09;0.70;99.90
41471;DHT22;27211;51.220;5.308;2023-01-25T23:06:35;0.80;99.90
41471;DHT22;27211;51.220;5.308;2023-01-25T23:09:05;0.90;99.90
41471;DHT22;27211;51.220;5.308;2023-01-25T23:11:35;1.30;99.90
41471;DHT22;27211;51.220;5.308;2023-01-25T23:14:06;1.10;99.90
41471;DHT22;27211;51.220;5.308;2023-01-25T23:16:50;1.00;99.90
41471;DHT22;27211;51.220;5.308;2023-01-25T23:19:16;1.10;99.90
41471;DHT22;27211;51.220;5.308;2023-01-25T23:21:42;1.30;99.90
41471;DHT22;27211;51.220;5.308;2023-01-25T23:24:09;1.70;99.90
41471;DHT22;27211;51.220;5.308;2023-01-25T23:26:37;1.80;99.90
41471;DHT22;27211;51.220;5.308;2023-01-25T23:29:07;1.80;99.90
41471;DHT22;27211;51.220;5.308;2023-01-25T23:31:34;1.50;99.90
41471;DHT22;27211;51.220;5.308;2023-01-25T23:34:02;1.90;99.90
41471;DHT22;27211;51.220;5.308;2023-01-25T23:36:31;1.80;99.90
41471;DHT22;27211;51.220;5.308;2023-01-25T23:38:57;1.90;99.90
41471;DHT22;27211;51.220;5.308;2023-01-25T23:41:25;1.60;99.90
41471;DHT22;27211;51.220;5.308;2023-01-25T23:43:52;1.80;99.90
41471;DHT22;27211;51.220;5.308;2023-01-25T23:46:19;1.30;99.90
41471;DHT22;27211;51.220;5.308;2023-01-25T23:48:45;1.30;99.90
41471;DHT22;27211;51.220;5.308;2023-01-25T23:51:13;1.00;99.90
41471;DHT22;27211;51.220;5.308;2023-01-25T23:53:40;1.30;99.90
41471;DHT22;27211;51.220;5.308;2023-01-25T23:56:12;1.10;99.90
41471;DHT22;27211;51.220;5.308;2023-01-25T23:58:38;1.20;99.90
